sensor_id;sensor_type;location;lat;lon;timestamp;temperature;humidity
10247;DHT22;5168;47.854;7.944;2023-03-20T00:01:19;4.30;99.90
10247;DHT22;5168;47.854;7.944;2023-03-20T00:03:46;4.50;99.90
10247;DHT22;5168;47.854;7.944;2023-03-20T00:06:16;4.20;99.90
10247;DHT22;5168;47.854;7.944;2023-03-20T00:08:43;4.10;99.90
10247;DHT22;5168;47.854;7.944;2023-03-20T00:13:57;4.30;99.90
10247;DHT22;5168;47.854;7.944;2023-03-20T00:16:26;4.40;99.90
10247;DHT22;5168;47.854;7.944;2023-03-20T00:21:20;4.00;99.90
10247;DHT22;5168;47.854;7.944;2023-03-20T00:23:46;4.40;99.90
10247;DHT22;5168;47.854;7.944;2023-03-20T00:26:16;4.30;99.90
10247;DHT22;5168;47.854;7.944;2023-03-20T00:28:46;4.30;99.90
10247;DHT22;5168;47.854;7.944;2023-03-20T00:33:47;4.20;99.90
10247;DHT22;5168;47.854;7.944;2023-03-20T00:36:12;3.90;99.90
10247;DHT22;5168;47.854;7.944;2023-03-20T00:38:38;4.20;99.90
10247;DHT22;5168;47.854;7.944;2023-03-20T00:43:56;4.10;99.90
10247;DHT22;5168;47.854;7.944;2023-03-20T00:46:23;3.90;99.90
10247;DHT22;5168;47.854;7.944;2023-03-20T00:48:49;4.20;99.90
10247;DHT22;5168;47.854;7.944;2023-03-20T00:51:16;4.30;99.90
10247;DHT22;5168;47.854;7.944;2023-03-20T00:53:41;4.40;99.90
10247;DHT22;5168;47.854;7.944;2023-03-20T00:56:20;4.20;99.90
10247;DHT22;5168;47.854;7.944;2023-03-20T00:58:49;3.70;99.90
10247;DHT22;5168;47.854;7.944;2023-03-20T01:01:15;4.00;99.90
10247;DHT22;5168;47.854;7.944;2023-03-20T01:03:42;4.10;99.90
10247;DHT22;5168;47.854;7.944;2023-03-20T01:06:11;4.00;99.90
10247;DHT22;5168;47.854;7.944;2023-03-20T01:11:03;3.90;99.90
10247;DHT22;5168;47.854;7.944;2023-03-20T01:13:30;4.40;99.90
10247;DHT22;5168;47.854;7.944;2023-03-20T01:15:57;4.10;99.90
10247;DHT22;5168;47.854;7.944;2023-03-20T01:18:24;3.80;99.90
10247;DHT22;5168;47.854;7.944;2023-03-20T01:20:50;3.90;99.90
10247;DHT22;5168;47.854;7.944;2023-03-20T01:23:19;4.00;99.90
10247;DHT22;5168;47.854;7.944;2023-03-20T01:25:47;3.70;99.90
10247;DHT22;5168;47.854;7.944;2023-03-20T01:28:21;3.80;99.90
10247;DHT22;5168;47.854;7.944;2023-03-20T01:30:48;3.80;99.90
10247;DHT22;5168;47.854;7.944;2023-03-20T01:33:21;4.10;99.90
10247;DHT22;5168;47.854;7.944;2023-03-20T01:35:48;3.80;99.90
10247;DHT22;5168;47.854;7.944;2023-03-20T01:38:22;3.70;99.90
10247;DHT22;5168;47.854;7.944;2023-03-20T01:41:02;3.90;99.90
10247;DHT22;5168;47.854;7.944;2023-03-20T01:43:28;4.00;99.90
10247;DHT22;5168;47.854;7.944;2023-03-20T01:46:02;3.80;99.90
10247;DHT22;5168;47.854;7.944;2023-03-20T01:51:23;4.00;99.90
10247;DHT22;5168;47.854;7.944;2023-03-20T01:53:53;4.00;99.90
10247;DHT22;5168;47.854;7.944;2023-03-20T01:56:19;3.90;99.90
10247;DHT22;5168;47.854;7.944;2023-03-20T01:58:49;3.70;99.90
10247;DHT22;5168;47.854;7.944;2023-03-20T02:01:16;3.80;99.90
10247;DHT22;5168;47.854;7.944;2023-03-20T02:03:46;3.80;99.90
10247;DHT22;5168;47.854;7.944;2023-03-20T02:06:12;4.00;99.90
10247;DHT22;5168;47.854;7.944;2023-03-20T02:08:46;3.70;99.90
10247;DHT22;5168;47.854;7.944;2023-03-20T02:11:12;3.60;99.90
10247;DHT22;5168;47.854;7.944;2023-03-20T02:13:39;3.80;99.90
10247;DHT22;5168;47.854;7.944;2023-03-20T02:16:09;3.60;99.90
10247;DHT22;5168;47.854;7.944;2023-03-20T02:18:35;3.80;99.90
10247;DHT22;5168;47.854;7.944;2023-03-20T02:21:48;3.90;99.90
10247;DHT22;5168;47.854;7.944;2023-03-20T02:27:12;3.40;99.90
10247;DHT22;5168;47.854;7.944;2023-03-20T02:43:59;3.80;99.90
10247;DHT22;5168;47.854;7.944;2023-03-20T02:46:50;3.80;99.90
10247;DHT22;5168;47.854;7.944;2023-03-20T02:49:33;3.60;99.90
10247;DHT22;5168;47.854;7.944;2023-03-20T02:58:12;4.00;99.90
10247;DHT22;5168;47.854;7.944;2023-03-20T03:00:53;3.70;99.90
10247;DHT22;5168;47.854;7.944;2023-03-20T03:03:28;3.70;99.90
10247;DHT22;5168;47.854;7.944;2023-03-20T03:06:00;3.60;99.90
10247;DHT22;5168;47.854;7.944;2023-03-20T03:08:31;3.60;99.90
10247;DHT22;5168;47.854;7.944;2023-03-20T03:11:02;3.70;99.90
10247;DHT22;5168;47.854;7.944;2023-03-20T03:13:32;3.70;99.90
10247;DHT22;5168;47.854;7.944;2023-03-20T03:16:02;3.10;99.90
10247;DHT22;5168;47.854;7.944;2023-03-20T03:18:31;3.90;99.90
10247;DHT22;5168;47.854;7.944;2023-03-20T03:20:59;3.90;99.90
10247;DHT22;5168;47.854;7.944;2023-03-20T03:23:34;3.60;99.90
10247;DHT22;5168;47.854;7.944;2023-03-20T03:26:01;3.60;99.90
10247;DHT22;5168;47.854;7.944;2023-03-20T03:28:34;3.70;99.90
10247;DHT22;5168;47.854;7.944;2023-03-20T03:31:06;3.80;99.90
10247;DHT22;5168;47.854;7.944;2023-03-20T03:33:34;4.00;99.90
10247;DHT22;5168;47.854;7.944;2023-03-20T03:36:10;3.20;99.90
10247;DHT22;5168;47.854;7.944;2023-03-20T03:41:32;3.80;99.90
10247;DHT22;5168;47.854;7.944;2023-03-20T03:46:40;3.90;99.90
10247;DHT22;5168;47.854;7.944;2023-03-20T03:49:08;3.90;99.90
10247;DHT22;5168;47.854;7.944;2023-03-20T03:51:40;3.90;99.90
10247;DHT22;5168;47.854;7.944;2023-03-20T03:54:19;3.80;99.90
10247;DHT22;5168;47.854;7.944;2023-03-20T03:56:47;3.90;99.90
10247;DHT22;5168;47.854;7.944;2023-03-20T03:59:29;4.00;99.90
10247;DHT22;5168;47.854;7.944;2023-03-20T04:01:57;3.90;99.90
10247;DHT22;5168;47.854;7.944;2023-03-20T04:04:24;3.90;99.90
10247;DHT22;5168;47.854;7.944;2023-03-20T04:06:51;3.70;99.90
10247;DHT22;5168;47.854;7.944;2023-03-20T04:09:17;4.00;99.90
10247;DHT22;5168;47.854;7.944;2023-03-20T04:11:43;3.90;99.90
10247;DHT22;5168;47.854;7.944;2023-03-20T04:14:10;3.80;99.90
10247;DHT22;5168;47.854;7.944;2023-03-20T04:21:28;3.90;99.90
10247;DHT22;5168;47.854;7.944;2023-03-20T04:23:53;4.10;99.90
10247;DHT22;5168;47.854;7.944;2023-03-20T04:26:19;3.70;99.90
10247;DHT22;5168;47.854;7.944;2023-03-20T04:28:45;3.70;99.90
10247;DHT22;5168;47.854;7.944;2023-03-20T04:31:11;4.00;99.90
10247;DHT22;5168;47.854;7.944;2023-03-20T04:36:03;3.90;99.90
10247;DHT22;5168;47.854;7.944;2023-03-20T04:38:28;4.00;99.90
10247;DHT22;5168;47.854;7.944;2023-03-20T04:40:54;3.80;99.90
10247;DHT22;5168;47.854;7.944;2023-03-20T04:43:19;3.90;99.90
10247;DHT22;5168;47.854;7.944;2023-03-20T04:45:45;4.00;99.90
10247;DHT22;5168;47.854;7.944;2023-03-20T04:48:10;3.80;99.90
10247;DHT22;5168;47.854;7.944;2023-03-20T04:50:36;3.80;99.90
10247;DHT22;5168;47.854;7.944;2023-03-20T04:57:53;4.00;99.90
10247;DHT22;5168;47.854;7.944;2023-03-20T05:00:19;3.80;99.90
10247;DHT22;5168;47.854;7.944;2023-03-20T05:02:45;3.80;99.90
10247;DHT22;5168;47.854;7.944;2023-03-20T05:05:11;4.10;99.90
10247;DHT22;5168;47.854;7.944;2023-03-20T05:10:03;4.30;99.90
10247;DHT22;5168;47.854;7.944;2023-03-20T05:12:29;4.00;99.90
10247;DHT22;5168;47.854;7.944;2023-03-20T05:17:21;3.60;99.90
10247;DHT22;5168;47.854;7.944;2023-03-20T05:19:47;3.70;99.90
10247;DHT22;5168;47.854;7.944;2023-03-20T05:22:17;3.70;99.90
10247;DHT22;5168;47.854;7.944;2023-03-20T05:24:42;3.70;99.90
10247;DHT22;5168;47.854;7.944;2023-03-20T05:27:08;3.70;99.90
10247;DHT22;5168;47.854;7.944;2023-03-20T05:29:34;3.70;99.90
10247;DHT22;5168;47.854;7.944;2023-03-20T05:32:00;3.70;99.90
10247;DHT22;5168;47.854;7.944;2023-03-20T05:41:57;3.80;99.90
10247;DHT22;5168;47.854;7.944;2023-03-20T05:44:23;3.70;99.90
10247;DHT22;5168;47.854;7.944;2023-03-20T05:46:48;3.80;99.90
10247;DHT22;5168;47.854;7.944;2023-03-20T05:49:14;3.80;99.90
10247;DHT22;5168;47.854;7.944;2023-03-20T05:51:40;3.60;99.90
10247;DHT22;5168;47.854;7.944;2023-03-20T05:54:05;3.60;99.90
10247;DHT22;5168;47.854;7.944;2023-03-20T05:56:31;4.00;99.90
10247;DHT22;5168;47.854;7.944;2023-03-20T06:01:22;3.60;99.90
10247;DHT22;5168;47.854;7.944;2023-03-20T06:03:48;3.90;99.90
10247;DHT22;5168;47.854;7.944;2023-03-20T06:06:15;3.80;99.90
10247;DHT22;5168;47.854;7.944;2023-03-20T06:08:41;3.80;99.90
10247;DHT22;5168;47.854;7.944;2023-03-20T06:11:07;3.90;99.90
10247;DHT22;5168;47.854;7.944;2023-03-20T06:13:32;3.90;99.90
10247;DHT22;5168;47.854;7.944;2023-03-20T06:15:58;4.00;99.90
10247;DHT22;5168;47.854;7.944;2023-03-20T06:18:23;4.30;99.90
10247;DHT22;5168;47.854;7.944;2023-03-20T06:20:53;3.90;99.90
10247;DHT22;5168;47.854;7.944;2023-03-20T06:23:19;4.00;99.90
10247;DHT22;5168;47.854;7.944;2023-03-20T06:25:45;3.90;99.90
10247;DHT22;5168;47.854;7.944;2023-03-20T06:28:10;3.90;99.90
10247;DHT22;5168;47.854;7.944;2023-03-20T06:30:36;4.00;99.90
10247;DHT22;5168;47.854;7.944;2023-03-20T06:33:02;4.10;99.90
10247;DHT22;5168;47.854;7.944;2023-03-20T06:35:27;3.90;99.90
10247;DHT22;5168;47.854;7.944;2023-03-20T06:37:56;3.90;99.90
10247;DHT22;5168;47.854;7.944;2023-03-20T06:40:21;4.00;99.90
10247;DHT22;5168;47.854;7.944;2023-03-20T06:42:47;4.10;99.90
10247;DHT22;5168;47.854;7.944;2023-03-20T06:45:12;4.50;99.90
10247;DHT22;5168;47.854;7.944;2023-03-20T06:47:38;3.80;99.90
10247;DHT22;5168;47.854;7.944;2023-03-20T06:50:04;3.70;99.90
10247;DHT22;5168;47.854;7.944;2023-03-20T06:52:29;4.50;99.90
10247;DHT22;5168;47.854;7.944;2023-03-20T06:57:22;3.80;99.90
10247;DHT22;5168;47.854;7.944;2023-03-20T06:59:48;3.80;99.90
10247;DHT22;5168;47.854;7.944;2023-03-20T07:04:41;3.80;99.90
10247;DHT22;5168;47.854;7.944;2023-03-20T07:09:33;4.00;99.90
10247;DHT22;5168;47.854;7.944;2023-03-20T07:14:24;3.90;99.90
10247;DHT22;5168;47.854;7.944;2023-03-20T07:16:50;4.40;99.90
10247;DHT22;5168;47.854;7.944;2023-03-20T07:19:16;4.20;99.90
10247;DHT22;5168;47.854;7.944;2023-03-20T07:21:43;4.10;99.90
10247;DHT22;5168;47.854;7.944;2023-03-20T07:26:34;4.00;99.90
10247;DHT22;5168;47.854;7.944;2023-03-20T07:31:27;4.10;99.90
10247;DHT22;5168;47.854;7.944;2023-03-20T07:33:53;4.10;99.90
10247;DHT22;5168;47.854;7.944;2023-03-20T07:38:46;4.20;99.90
10247;DHT22;5168;47.854;7.944;2023-03-20T07:41:12;4.30;99.90
10247;DHT22;5168;47.854;7.944;2023-03-20T07:43:37;0.90;99.90
10247;DHT22;5168;47.854;7.944;2023-03-20T07:46:05;4.20;99.90
10247;DHT22;5168;47.854;7.944;2023-03-20T07:48:31;4.50;99.90
10247;DHT22;5168;47.854;7.944;2023-03-20T07:58:14;3.90;99.90
10247;DHT22;5168;47.854;7.944;2023-03-20T08:00:40;4.50;99.90
10247;DHT22;5168;47.854;7.944;2023-03-20T08:03:05;4.20;99.90
10247;DHT22;5168;47.854;7.944;2023-03-20T08:05:32;4.40;99.90
10247;DHT22;5168;47.854;7.944;2023-03-20T08:07:57;4.50;99.90
10247;DHT22;5168;47.854;7.944;2023-03-20T08:10:23;4.20;99.90
10247;DHT22;5168;47.854;7.944;2023-03-20T08:12:48;4.70;99.90
10247;DHT22;5168;47.854;7.944;2023-03-20T08:15:14;4.50;99.90
10247;DHT22;5168;47.854;7.944;2023-03-20T08:17:44;4.80;99.90
10247;DHT22;5168;47.854;7.944;2023-03-20T08:20:14;4.40;99.90
10247;DHT22;5168;47.854;7.944;2023-03-20T08:22:40;4.70;99.90
10247;DHT22;5168;47.854;7.944;2023-03-20T08:25:07;4.50;99.90
10247;DHT22;5168;47.854;7.944;2023-03-20T08:27:34;4.80;99.90
10247;DHT22;5168;47.854;7.944;2023-03-20T08:32:26;4.80;99.90
10247;DHT22;5168;47.854;7.944;2023-03-20T08:34:52;4.70;99.90
10247;DHT22;5168;47.854;7.944;2023-03-20T08:37:20;4.60;99.90
10247;DHT22;5168;47.854;7.944;2023-03-20T08:39:46;4.60;99.90
10247;DHT22;5168;47.854;7.944;2023-03-20T08:42:12;4.60;99.90
10247;DHT22;5168;47.854;7.944;2023-03-20T08:44:37;4.90;99.90
10247;DHT22;5168;47.854;7.944;2023-03-20T08:47:03;4.90;99.90
10247;DHT22;5168;47.854;7.944;2023-03-20T08:49:29;4.60;99.90
10247;DHT22;5168;47.854;7.944;2023-03-20T08:51:55;5.00;99.90
10247;DHT22;5168;47.854;7.944;2023-03-20T08:54:21;4.90;99.90
10247;DHT22;5168;47.854;7.944;2023-03-20T08:56:46;4.90;99.90
10247;DHT22;5168;47.854;7.944;2023-03-20T08:59:12;5.30;99.90
10247;DHT22;5168;47.854;7.944;2023-03-20T09:01:37;5.20;99.90
10247;DHT22;5168;47.854;7.944;2023-03-20T09:04:03;4.90;99.90
10247;DHT22;5168;47.854;7.944;2023-03-20T09:06:29;5.70;99.90
10247;DHT22;5168;47.854;7.944;2023-03-20T09:08:55;5.60;99.90
10247;DHT22;5168;47.854;7.944;2023-03-20T09:11:23;5.60;99.90
10247;DHT22;5168;47.854;7.944;2023-03-20T09:13:49;5.60;99.90
10247;DHT22;5168;47.854;7.944;2023-03-20T09:16:15;5.50;99.90
10247;DHT22;5168;47.854;7.944;2023-03-20T09:18:40;5.50;99.90
10247;DHT22;5168;47.854;7.944;2023-03-20T09:23:32;5.60;99.90
10247;DHT22;5168;47.854;7.944;2023-03-20T09:25:58;5.60;99.90
10247;DHT22;5168;47.854;7.944;2023-03-20T09:28:24;6.30;99.90
10247;DHT22;5168;47.854;7.944;2023-03-20T09:30:57;5.60;99.90
10247;DHT22;5168;47.854;7.944;2023-03-20T09:33:23;5.90;99.90
10247;DHT22;5168;47.854;7.944;2023-03-20T09:35:49;5.80;99.90
10247;DHT22;5168;47.854;7.944;2023-03-20T09:38:15;6.70;99.90
10247;DHT22;5168;47.854;7.944;2023-03-20T09:43:27;6.40;99.90
10247;DHT22;5168;47.854;7.944;2023-03-20T09:48:40;6.40;99.90
10247;DHT22;5168;47.854;7.944;2023-03-20T09:53:48;6.60;99.90
10247;DHT22;5168;47.854;7.944;2023-03-20T09:56:18;6.30;99.90
10247;DHT22;5168;47.854;7.944;2023-03-20T09:58:57;6.50;99.90
10247;DHT22;5168;47.854;7.944;2023-03-20T10:06:41;6.70;99.90
10247;DHT22;5168;47.854;7.944;2023-03-20T10:20:12;6.40;99.90
10247;DHT22;5168;47.854;7.944;2023-03-20T10:22:44;6.50;99.90
10247;DHT22;5168;47.854;7.944;2023-03-20T10:33:55;7.10;99.90
10247;DHT22;5168;47.854;7.944;2023-03-20T10:39:11;9.30;99.90
10247;DHT22;5168;47.854;7.944;2023-03-20T10:41:40;10.50;99.90
10247;DHT22;5168;47.854;7.944;2023-03-20T10:44:17;10.40;99.90
10247;DHT22;5168;47.854;7.944;2023-03-20T10:46:49;9.90;99.90
10247;DHT22;5168;47.854;7.944;2023-03-20T10:52:00;9.80;99.90
10247;DHT22;5168;47.854;7.944;2023-03-20T10:54:30;8.90;99.90
10247;DHT22;5168;47.854;7.944;2023-03-20T10:56:58;8.60;99.90
10247;DHT22;5168;47.854;7.944;2023-03-20T10:59:31;8.10;99.90
10247;DHT22;5168;47.854;7.944;2023-03-20T11:01:58;8.20;99.90
10247;DHT22;5168;47.854;7.944;2023-03-20T11:04:24;8.20;99.90
10247;DHT22;5168;47.854;7.944;2023-03-20T11:07:06;7.50;99.90
10247;DHT22;5168;47.854;7.944;2023-03-20T11:09:33;8.00;99.90
10247;DHT22;5168;47.854;7.944;2023-03-20T11:12:01;7.50;99.90
10247;DHT22;5168;47.854;7.944;2023-03-20T11:14:33;7.70;99.90
10247;DHT22;5168;47.854;7.944;2023-03-20T11:17:01;7.30;99.90
10247;DHT22;5168;47.854;7.944;2023-03-20T11:19:32;7.50;99.90
10247;DHT22;5168;47.854;7.944;2023-03-20T11:22:01;7.40;99.90
10247;DHT22;5168;47.854;7.944;2023-03-20T11:24:45;7.40;99.90
10247;DHT22;5168;47.854;7.944;2023-03-20T11:27:14;6.70;99.90
10247;DHT22;5168;47.854;7.944;2023-03-20T11:29:42;7.20;99.90
10247;DHT22;5168;47.854;7.944;2023-03-20T11:32:26;7.30;99.90
10247;DHT22;5168;47.854;7.944;2023-03-20T11:34:53;7.60;99.90
10247;DHT22;5168;47.854;7.944;2023-03-20T11:37:27;8.40;99.90
10247;DHT22;5168;47.854;7.944;2023-03-20T11:40:09;8.40;99.90
10247;DHT22;5168;47.854;7.944;2023-03-20T11:42:38;8.50;99.90
10247;DHT22;5168;47.854;7.944;2023-03-20T11:45:15;8.30;99.90
10247;DHT22;5168;47.854;7.944;2023-03-20T11:47:41;8.70;99.90
10247;DHT22;5168;47.854;7.944;2023-03-20T11:50:34;8.60;99.90
10247;DHT22;5168;47.854;7.944;2023-03-20T11:53:02;8.70;99.90
10247;DHT22;5168;47.854;7.944;2023-03-20T11:55:32;8.50;99.90
10247;DHT22;5168;47.854;7.944;2023-03-20T11:58:02;8.80;99.90
10247;DHT22;5168;47.854;7.944;2023-03-20T12:00:36;9.20;99.90
10247;DHT22;5168;47.854;7.944;2023-03-20T12:03:02;9.20;99.90
10247;DHT22;5168;47.854;7.944;2023-03-20T12:05:35;9.50;99.90
10247;DHT22;5168;47.854;7.944;2023-03-20T12:08:06;9.40;99.90
10247;DHT22;5168;47.854;7.944;2023-03-20T12:10:36;9.70;99.90
10247;DHT22;5168;47.854;7.944;2023-03-20T12:13:15;9.30;99.90
10247;DHT22;5168;47.854;7.944;2023-03-20T12:15:46;9.30;99.90
10247;DHT22;5168;47.854;7.944;2023-03-20T12:18:33;9.70;99.90
10247;DHT22;5168;47.854;7.944;2023-03-20T12:21:22;9.10;99.90
10247;DHT22;5168;47.854;7.944;2023-03-20T12:23:56;9.50;99.90
10247;DHT22;5168;47.854;7.944;2023-03-20T12:29:02;10.40;99.90
10247;DHT22;5168;47.854;7.944;2023-03-20T12:34:36;10.50;99.90
10247;DHT22;5168;47.854;7.944;2023-03-20T12:37:02;10.30;99.90
10247;DHT22;5168;47.854;7.944;2023-03-20T12:39:36;10.70;99.90
10247;DHT22;5168;47.854;7.944;2023-03-20T12:45:09;11.10;99.90
10247;DHT22;5168;47.854;7.944;2023-03-20T12:50:27;10.20;99.90
10247;DHT22;5168;47.854;7.944;2023-03-20T12:53:30;10.00;99.90
10247;DHT22;5168;47.854;7.944;2023-03-20T12:59:04;9.80;99.90
10247;DHT22;5168;47.854;7.944;2023-03-20T13:04:25;9.40;99.90
10247;DHT22;5168;47.854;7.944;2023-03-20T13:07:01;9.70;99.90
10247;DHT22;5168;47.854;7.944;2023-03-20T13:18:10;9.90;99.90
10247;DHT22;5168;47.854;7.944;2023-03-20T13:23:21;9.80;99.90
10247;DHT22;5168;47.854;7.944;2023-03-20T13:33:51;10.50;99.90
10247;DHT22;5168;47.854;7.944;2023-03-20T13:39:09;10.60;99.90
10247;DHT22;5168;47.854;7.944;2023-03-20T13:41:37;10.30;99.90
10247;DHT22;5168;47.854;7.944;2023-03-20T13:44:04;10.30;99.90
10247;DHT22;5168;47.854;7.944;2023-03-20T13:46:39;10.50;99.90
10247;DHT22;5168;47.854;7.944;2023-03-20T13:49:36;10.00;99.90
10247;DHT22;5168;47.854;7.944;2023-03-20T13:52:09;9.60;99.90
10247;DHT22;5168;47.854;7.944;2023-03-20T13:55:15;9.50;99.90
10247;DHT22;5168;47.854;7.944;2023-03-20T13:58:05;9.50;99.90
10247;DHT22;5168;47.854;7.944;2023-03-20T14:03:36;9.10;99.90
10247;DHT22;5168;47.854;7.944;2023-03-20T14:08:56;8.80;99.90
10247;DHT22;5168;47.854;7.944;2023-03-20T14:14:24;9.00;99.90
10247;DHT22;5168;47.854;7.944;2023-03-20T14:17:11;8.60;99.90
10247;DHT22;5168;47.854;7.944;2023-03-20T14:19:38;9.10;99.90
10247;DHT22;5168;47.854;7.944;2023-03-20T14:22:04;8.60;99.90
10247;DHT22;5168;47.854;7.944;2023-03-20T14:24:35;8.90;99.90
10247;DHT22;5168;47.854;7.944;2023-03-20T14:27:01;9.10;99.90
10247;DHT22;5168;47.854;7.944;2023-03-20T14:32:22;8.50;99.90
10247;DHT22;5168;47.854;7.944;2023-03-20T14:38:00;8.70;99.90
10247;DHT22;5168;47.854;7.944;2023-03-20T14:40:28;8.40;99.90
10247;DHT22;5168;47.854;7.944;2023-03-20T14:42:58;8.20;99.90
10247;DHT22;5168;47.854;7.944;2023-03-20T14:45:35;8.30;99.90
10247;DHT22;5168;47.854;7.944;2023-03-20T14:48:27;8.60;99.90
10247;DHT22;5168;47.854;7.944;2023-03-20T14:53:24;8.10;99.90
10247;DHT22;5168;47.854;7.944;2023-03-20T14:58:44;7.90;99.90
10247;DHT22;5168;47.854;7.944;2023-03-20T15:01:23;7.80;99.90
10247;DHT22;5168;47.854;7.944;2023-03-20T15:04:05;8.20;99.90
10247;DHT22;5168;47.854;7.944;2023-03-20T15:06:31;8.00;99.90
10247;DHT22;5168;47.854;7.944;2023-03-20T15:09:02;8.20;99.90
10247;DHT22;5168;47.854;7.944;2023-03-20T15:11:30;7.80;99.90
10247;DHT22;5168;47.854;7.944;2023-03-20T15:13:57;8.00;99.90
10247;DHT22;5168;47.854;7.944;2023-03-20T15:16:31;8.50;99.90
10247;DHT22;5168;47.854;7.944;2023-03-20T15:18:57;8.10;99.90
10247;DHT22;5168;47.854;7.944;2023-03-20T15:21:32;8.20;99.90
10247;DHT22;5168;47.854;7.944;2023-03-20T15:23:58;7.90;99.90
10247;DHT22;5168;47.854;7.944;2023-03-20T15:26:24;8.30;99.90
10247;DHT22;5168;47.854;7.944;2023-03-20T15:29:02;7.80;99.90
10247;DHT22;5168;47.854;7.944;2023-03-20T15:31:30;8.20;99.90
10247;DHT22;5168;47.854;7.944;2023-03-20T15:33:58;8.00;99.90
10247;DHT22;5168;47.854;7.944;2023-03-20T15:36:26;7.90;99.90
10247;DHT22;5168;47.854;7.944;2023-03-20T15:38:52;7.60;99.90
10247;DHT22;5168;47.854;7.944;2023-03-20T15:41:28;7.90;99.90
10247;DHT22;5168;47.854;7.944;2023-03-20T15:46:49;8.00;99.90
10247;DHT22;5168;47.854;7.944;2023-03-20T15:49:18;7.90;99.90
10247;DHT22;5168;47.854;7.944;2023-03-20T15:51:45;7.90;99.90
10247;DHT22;5168;47.854;7.944;2023-03-20T15:54:13;8.00;99.90
10247;DHT22;5168;47.854;7.944;2023-03-20T15:56:41;7.70;99.90
10247;DHT22;5168;47.854;7.944;2023-03-20T15:59:17;7.90;99.90
10247;DHT22;5168;47.854;7.944;2023-03-20T16:01:44;8.30;99.90
10247;DHT22;5168;47.854;7.944;2023-03-20T16:04:16;8.30;99.90
10247;DHT22;5168;47.854;7.944;2023-03-20T16:06:53;7.90;99.90
10247;DHT22;5168;47.854;7.944;2023-03-20T16:09:18;7.80;99.90
10247;DHT22;5168;47.854;7.944;2023-03-20T16:11:54;7.80;99.90
10247;DHT22;5168;47.854;7.944;2023-03-20T16:14:24;7.90;99.90
10247;DHT22;5168;47.854;7.944;2023-03-20T16:16:51;8.00;99.90
10247;DHT22;5168;47.854;7.944;2023-03-20T16:19:18;7.60;99.90
10247;DHT22;5168;47.854;7.944;2023-03-20T16:21:49;7.70;99.90
10247;DHT22;5168;47.854;7.944;2023-03-20T16:24:25;7.80;99.90
10247;DHT22;5168;47.854;7.944;2023-03-20T16:26:52;7.70;99.90
10247;DHT22;5168;47.854;7.944;2023-03-20T16:29:19;7.80;99.90
10247;DHT22;5168;47.854;7.944;2023-03-20T16:31:56;7.60;99.90
10247;DHT22;5168;47.854;7.944;2023-03-20T16:34:26;7.50;99.90
10247;DHT22;5168;47.854;7.944;2023-03-20T16:36:58;7.70;99.90
10247;DHT22;5168;47.854;7.944;2023-03-20T16:39:27;7.40;99.90
10247;DHT22;5168;47.854;7.944;2023-03-20T16:42:09;7.60;99.90
10247;DHT22;5168;47.854;7.944;2023-03-20T16:44:35;7.20;99.90
10247;DHT22;5168;47.854;7.944;2023-03-20T16:47:32;7.30;99.90
10247;DHT22;5168;47.854;7.944;2023-03-20T16:52:45;7.20;99.90
10247;DHT22;5168;47.854;7.944;2023-03-20T16:55:27;6.60;99.90
10247;DHT22;5168;47.854;7.944;2023-03-20T16:57:57;7.60;99.90
10247;DHT22;5168;47.854;7.944;2023-03-20T17:00:28;7.40;99.90
10247;DHT22;5168;47.854;7.944;2023-03-20T17:03:06;7.30;99.90
10247;DHT22;5168;47.854;7.944;2023-03-20T17:08:42;6.80;99.90
10247;DHT22;5168;47.854;7.944;2023-03-20T17:11:20;6.80;99.90
10247;DHT22;5168;47.854;7.944;2023-03-20T17:13:46;6.90;99.90
10247;DHT22;5168;47.854;7.944;2023-03-20T17:16:16;6.80;99.90
10247;DHT22;5168;47.854;7.944;2023-03-20T17:18:49;6.70;99.90
10247;DHT22;5168;47.854;7.944;2023-03-20T17:21:22;6.60;99.90
10247;DHT22;5168;47.854;7.944;2023-03-20T17:23:47;6.80;99.90
10247;DHT22;5168;47.854;7.944;2023-03-20T17:28:39;6.50;99.90
10247;DHT22;5168;47.854;7.944;2023-03-20T17:31:07;6.60;99.90
10247;DHT22;5168;47.854;7.944;2023-03-20T17:33:34;6.50;99.90
10247;DHT22;5168;47.854;7.944;2023-03-20T17:36:00;6.20;99.90
10247;DHT22;5168;47.854;7.944;2023-03-20T17:38:26;6.30;99.90
10247;DHT22;5168;47.854;7.944;2023-03-20T17:43:18;6.10;99.90
10247;DHT22;5168;47.854;7.944;2023-03-20T17:45:45;5.90;99.90
10247;DHT22;5168;47.854;7.944;2023-03-20T17:48:18;5.90;99.90
10247;DHT22;5168;47.854;7.944;2023-03-20T17:50:45;6.00;99.90
10247;DHT22;5168;47.854;7.944;2023-03-20T17:53:17;5.90;99.90
10247;DHT22;5168;47.854;7.944;2023-03-20T17:55:44;6.10;99.90
10247;DHT22;5168;47.854;7.944;2023-03-20T17:58:14;5.40;99.90
10247;DHT22;5168;47.854;7.944;2023-03-20T18:00:41;5.60;99.90
10247;DHT22;5168;47.854;7.944;2023-03-20T18:03:06;5.80;99.90
10247;DHT22;5168;47.854;7.944;2023-03-20T18:05:32;5.90;99.90
10247;DHT22;5168;47.854;7.944;2023-03-20T18:07:58;5.90;99.90
10247;DHT22;5168;47.854;7.944;2023-03-20T18:10:28;5.70;99.90
10247;DHT22;5168;47.854;7.944;2023-03-20T18:12:56;5.90;99.90
10247;DHT22;5168;47.854;7.944;2023-03-20T18:15:22;5.70;99.90
10247;DHT22;5168;47.854;7.944;2023-03-20T18:17:47;5.70;99.90
10247;DHT22;5168;47.854;7.944;2023-03-20T18:20:27;5.90;99.90
10247;DHT22;5168;47.854;7.944;2023-03-20T18:22:53;5.50;99.90
10247;DHT22;5168;47.854;7.944;2023-03-20T18:25:19;6.00;99.90
10247;DHT22;5168;47.854;7.944;2023-03-20T18:27:47;5.90;99.90
10247;DHT22;5168;47.854;7.944;2023-03-20T18:30:15;5.70;99.90
10247;DHT22;5168;47.854;7.944;2023-03-20T18:35:08;6.10;99.90
10247;DHT22;5168;47.854;7.944;2023-03-20T18:40:00;5.90;99.90
10247;DHT22;5168;47.854;7.944;2023-03-20T18:42:26;6.40;99.90
10247;DHT22;5168;47.854;7.944;2023-03-20T18:44:51;5.70;99.90
10247;DHT22;5168;47.854;7.944;2023-03-20T18:49:43;5.10;99.90
10247;DHT22;5168;47.854;7.944;2023-03-20T18:52:08;5.70;99.90
10247;DHT22;5168;47.854;7.944;2023-03-20T18:57:01;5.20;99.90
10247;DHT22;5168;47.854;7.944;2023-03-20T18:59:27;5.10;99.90
10247;DHT22;5168;47.854;7.944;2023-03-20T19:01:52;5.90;99.90
10247;DHT22;5168;47.854;7.944;2023-03-20T19:04:18;5.60;99.90
10247;DHT22;5168;47.854;7.944;2023-03-20T19:09:10;5.00;99.90
10247;DHT22;5168;47.854;7.944;2023-03-20T19:11:37;5.80;99.90
10247;DHT22;5168;47.854;7.944;2023-03-20T19:14:02;5.60;99.90
10247;DHT22;5168;47.854;7.944;2023-03-20T19:16:33;5.60;99.90
10247;DHT22;5168;47.854;7.944;2023-03-20T19:19:09;5.50;99.90
10247;DHT22;5168;47.854;7.944;2023-03-20T19:24:04;5.40;99.90
10247;DHT22;5168;47.854;7.944;2023-03-20T19:26:31;5.80;99.90
10247;DHT22;5168;47.854;7.944;2023-03-20T19:28:58;5.50;99.90
10247;DHT22;5168;47.854;7.944;2023-03-20T19:31:24;5.70;99.90
10247;DHT22;5168;47.854;7.944;2023-03-20T19:33:51;5.70;99.90
10247;DHT22;5168;47.854;7.944;2023-03-20T19:36:27;5.30;99.90
10247;DHT22;5168;47.854;7.944;2023-03-20T19:38:53;5.40;99.90
10247;DHT22;5168;47.854;7.944;2023-03-20T19:41:19;5.60;99.90
10247;DHT22;5168;47.854;7.944;2023-03-20T19:43:44;5.20;99.90
10247;DHT22;5168;47.854;7.944;2023-03-20T19:46:14;4.80;99.90
10247;DHT22;5168;47.854;7.944;2023-03-20T19:48:44;5.40;99.90
10247;DHT22;5168;47.854;7.944;2023-03-20T19:51:16;5.20;99.90
10247;DHT22;5168;47.854;7.944;2023-03-20T19:53:42;5.40;99.90
10247;DHT22;5168;47.854;7.944;2023-03-20T19:56:09;5.20;99.90
10247;DHT22;5168;47.854;7.944;2023-03-20T19:58:36;5.10;99.90
10247;DHT22;5168;47.854;7.944;2023-03-20T20:01:02;5.10;99.90
10247;DHT22;5168;47.854;7.944;2023-03-20T20:03:27;5.20;99.90